Time;durP1;ratioP1;P1;durP2;ratioP2;P2;SDS_P1;SDS_P2;PMS_P1;PMS_P2;Temp;Humidity;BMP_temperature;BMP_pressure;BME280_temperature;BME280_humidity;BME280_pressure;Samples;Min_cycle;Max_cycle;Signal;HPM_P1;HPM_P2
2023/07/22 00:00:22;;;;;;;11.57;8.43;;;;;;;;;;4929230;28;99894;-79
2023/07/22 00:02:49;;;;;;;13.30;8.60;;;;;;;;;;4930992;28;98196;-79
2023/07/22 00:05:15;;;;;;;9.98;7.65;;;;;;;;;;4930754;28;99467;-79
2023/07/22 00:07:42;;;;;;;14.57;8.05;;;;;;;;;;4932932;28;99123;-77
2023/07/22 00:10:09;;;;;;;10.90;8.45;;;;;;;;;;4930465;28;99369;-78
2023/07/22 00:12:35;;;;;;;12.35;8.45;;;;;;;;;;4929707;28;99085;-79
2023/07/22 00:15:02;;;;;;;11.75;8.02;;;;;;;;;;4930819;28;98239;-78
2023/07/22 00:17:29;;;;;;;13.00;8.63;;;;;;;;;;4930645;28;99381;-77
2023/07/22 00:19:55;;;;;;;13.18;9.10;;;;;;;;;;4929833;28;100314;-78
2023/07/22 00:22:22;;;;;;;14.60;9.13;;;;;;;;;;4929845;28;98228;-78
2023/07/22 00:24:48;;;;;;;13.18;8.27;;;;;;;;;;4930856;28;99708;-78
2023/07/22 00:27:15;;;;;;;11.15;7.70;;;;;;;;;;4929453;28;99339;-78
2023/07/22 00:29:42;;;;;;;12.45;8.23;;;;;;;;;;4949024;28;98302;-78
2023/07/22 00:32:08;;;;;;;11.77;7.68;;;;;;;;;;4931277;28;98795;-78
2023/07/22 00:34:36;;;;;;;9.60;8.60;;;;;;;;;;4929648;28;98224;-79
2023/07/22 00:37:03;;;;;;;10.82;7.95;;;;;;;;;;4930475;28;98455;-76
2023/07/22 00:39:29;;;;;;;9.48;7.68;;;;;;;;;;4929290;28;98856;-76
2023/07/22 00:41:56;;;;;;;11.98;8.50;;;;;;;;;;4929787;28;98168;-79
2023/07/22 00:44:22;;;;;;;14.52;9.27;;;;;;;;;;4929909;28;98370;-77
2023/07/22 00:46:50;;;;;;;11.27;8.35;;;;;;;;;;4931030;28;98837;-78
2023/07/22 00:49:16;;;;;;;11.95;9.02;;;;;;;;;;4929497;28;98339;-77
2023/07/22 00:51:43;;;;;;;13.25;9.50;;;;;;;;;;4932142;28;99583;-77
2023/07/22 00:54:10;;;;;;;13.55;9.13;;;;;;;;;;4930681;28;98171;-77
2023/07/22 00:56:36;;;;;;;16.27;9.70;;;;;;;;;;4915173;28;98824;-78
2023/07/22 00:59:03;;;;;;;15.18;8.93;;;;;;;;;;4909630;28;101845;-77
2023/07/22 01:01:30;;;;;;;12.55;8.77;;;;;;;;;;4909559;28;98287;-79
2023/07/22 01:03:56;;;;;;;11.77;8.98;;;;;;;;;;4926501;28;100451;-79
2023/07/22 01:06:24;;;;;;;12.85;9.20;;;;;;;;;;4928740;28;100028;-78
2023/07/22 01:08:51;;;;;;;11.32;8.93;;;;;;;;;;4930045;28;98502;-78
2023/07/22 01:11:18;;;;;;;16.20;9.10;;;;;;;;;;4931902;28;101223;-77
2023/07/22 01:13:44;;;;;;;11.90;8.55;;;;;;;;;;4929989;28;98232;-78
2023/07/22 01:16:11;;;;;;;12.02;8.48;;;;;;;;;;4929429;28;99406;-78
2023/07/22 01:18:38;;;;;;;12.02;8.93;;;;;;;;;;4945067;28;101708;-78
2023/07/22 01:21:06;;;;;;;15.93;8.13;;;;;;;;;;4931123;28;98171;-78
2023/07/22 01:23:32;;;;;;;13.93;8.68;;;;;;;;;;4932405;28;98248;-78
2023/07/22 01:25:59;;;;;;;13.95;8.35;;;;;;;;;;4931977;28;100014;-78
2023/07/22 01:28:25;;;;;;;12.35;8.73;;;;;;;;;;4932630;28;98273;-77
2023/07/22 01:30:52;;;;;;;14.73;8.82;;;;;;;;;;4932518;28;98430;-77
2023/07/22 01:33:18;;;;;;;12.38;8.75;;;;;;;;;;4936018;28;98963;-78
2023/07/22 01:35:45;;;;;;;13.38;9.40;;;;;;;;;;4933759;28;98560;-78
2023/07/22 01:38:11;;;;;;;12.52;8.73;;;;;;;;;;4932841;28;98804;-78
2023/07/22 01:40:38;;;;;;;14.10;8.85;;;;;;;;;;4933557;28;98139;-78
2023/07/22 01:43:04;;;;;;;10.55;8.48;;;;;;;;;;4933072;28;99890;-79
2023/07/22 01:45:32;;;;;;;13.82;8.98;;;;;;;;;;4932084;28;98905;-77
2023/07/22 01:47:58;;;;;;;12.73;9.85;;;;;;;;;;4933466;28;98157;-79
2023/07/22 01:50:25;;;;;;;18.42;9.95;;;;;;;;;;4933144;28;98350;-79
2023/07/22 01:52:51;;;;;;;15.30;9.98;;;;;;;;;;4930265;28;100019;-78
2023/07/22 01:55:18;;;;;;;15.23;9.88;;;;;;;;;;4936547;28;98516;-78
2023/07/22 01:57:45;;;;;;;16.63;9.52;;;;;;;;;;4932613;28;99946;-80
2023/07/22 02:00:12;;;;;;;16.70;9.75;;;;;;;;;;4930594;28;98745;-80
2023/07/22 02:02:38;;;;;;;14.60;8.98;;;;;;;;;;4932851;28;99521;-78
2023/07/22 02:05:06;;;;;;;14.30;9.95;;;;;;;;;;4932334;28;98770;-79
2023/07/22 02:07:33;;;;;;;19.27;10.02;;;;;;;;;;4932698;28;98244;-77
2023/07/22 02:09:59;;;;;;;17.33;9.27;;;;;;;;;;4933242;28;98423;-78
2023/07/22 02:12:25;;;;;;;12.95;9.45;;;;;;;;;;4931982;28;99004;-77
2023/07/22 02:14:52;;;;;;;14.65;9.35;;;;;;;;;;4932352;28;98246;-77
2023/07/22 02:17:20;;;;;;;20.17;11.13;;;;;;;;;;4933638;28;98898;-77
2023/07/22 02:19:46;;;;;;;15.93;10.50;;;;;;;;;;4947020;28;98364;-78
2023/07/22 02:22:13;;;;;;;18.58;10.43;;;;;;;;;;4947278;28;101278;-79
2023/07/22 02:24:39;;;;;;;16.30;10.02;;;;;;;;;;4932132;28;98960;-77
2023/07/22 02:27:07;;;;;;;15.65;10.75;;;;;;;;;;4931577;28;98317;-78
2023/07/22 02:29:33;;;;;;;16.77;11.25;;;;;;;;;;4931531;28;98561;-77
2023/07/22 02:32:01;;;;;;;18.55;10.82;;;;;;;;;;4930524;28;98827;-78
2023/07/22 02:34:28;;;;;;;20.55;12.20;;;;;;;;;;4930140;28;98345;-77
2023/07/22 02:36:54;;;;;;;20.50;12.35;;;;;;;;;;4932404;28;98561;-78
2023/07/22 02:39:20;;;;;;;18.80;10.60;;;;;;;;;;4934037;28;100007;-80
2023/07/22 02:41:47;;;;;;;18.77;10.80;;;;;;;;;;4930940;28;98614;-79
2023/07/22 02:44:13;;;;;;;14.18;10.75;;;;;;;;;;4931604;28;99912;-79
2023/07/22 02:46:41;;;;;;;19.10;11.27;;;;;;;;;;4932899;28;98191;-78
2023/07/22 02:49:07;;;;;;;18.00;11.20;;;;;;;;;;4930320;28;99366;-78
2023/07/22 02:51:34;;;;;;;17.38;11.60;;;;;;;;;;4930398;28;100857;-80
2023/07/22 02:54:00;;;;;;;21.05;10.95;;;;;;;;;;4932267;28;98358;-79
2023/07/22 02:56:27;;;;;;;22.90;12.65;;;;;;;;;;4935351;28;101213;-77
2023/07/22 02:58:54;;;;;;;19.75;11.32;;;;;;;;;;4912290;28;98965;-77
2023/07/22 03:01:20;;;;;;;23.15;12.20;;;;;;;;;;4915487;28;97991;-79
2023/07/22 03:03:47;;;;;;;15.68;11.02;;;;;;;;;;4921448;28;98822;-77
2023/07/22 03:06:13;;;;;;;20.48;11.27;;;;;;;;;;4931150;28;98183;-78
2023/07/22 03:08:40;;;;;;;20.52;12.07;;;;;;;;;;4931097;28;98524;-78
2023/07/22 03:11:07;;;;;;;23.10;11.27;;;;;;;;;;4930116;28;100151;-79
2023/07/22 03:13:34;;;;;;;21.23;11.38;;;;;;;;;;4931527;28;98198;-77
2023/07/22 03:16:04;;;;;;;21.88;11.75;;;;;;;;;;4930948;28;98259;-78
2023/07/22 03:18:31;;;;;;;21.00;11.48;;;;;;;;;;4930137;28;102171;-77
2023/07/22 03:20:58;;;;;;;22.85;12.45;;;;;;;;;;4934457;28;98293;-77
2023/07/22 03:23:24;;;;;;;23.27;11.73;;;;;;;;;;4928971;28;101694;-77
2023/07/22 03:25:51;;;;;;;17.67;10.93;;;;;;;;;;4930506;28;98554;-77
2023/07/22 03:28:17;;;;;;;18.13;12.10;;;;;;;;;;4931657;28;98454;-78
2023/07/22 03:30:44;;;;;;;19.92;11.48;;;;;;;;;;4930028;28;98966;-79
2023/07/22 03:33:10;;;;;;;17.63;11.77;;;;;;;;;;4929694;28;98213;-77
2023/07/22 03:35:37;;;;;;;20.55;12.13;;;;;;;;;;4931300;28;99898;-78
2023/07/22 03:38:04;;;;;;;17.10;11.38;;;;;;;;;;4929635;28;101834;-78
2023/07/22 03:40:32;;;;;;;18.40;11.88;;;;;;;;;;4931275;28;98392;-78
2023/07/22 03:42:59;;;;;;;16.00;11.00;;;;;;;;;;4934214;28;98526;-78
2023/07/22 03:45:25;;;;;;;18.73;11.65;;;;;;;;;;4928797;28;98175;-78
2023/07/22 03:47:53;;;;;;;18.10;11.27;;;;;;;;;;4931951;28;98729;-77
2023/07/22 03:50:20;;;;;;;19.10;12.60;;;;;;;;;;4929576;28;99877;-78
2023/07/22 03:52:46;;;;;;;17.75;11.48;;;;;;;;;;4930494;28;98192;-78
2023/07/22 03:55:13;;;;;;;23.55;11.50;;;;;;;;;;4931050;28;98567;-79
2023/07/22 03:57:39;;;;;;;19.67;11.80;;;;;;;;;;4930425;28;99005;-79
2023/07/22 04:00:09;;;;;;;19.42;11.98;;;;;;;;;;4931309;28;98289;-80
2023/07/22 04:02:39;;;;;;;17.50;10.48;;;;;;;;;;4929957;28;99090;-78
2023/07/22 04:05:06;;;;;;;16.95;11.05;;;;;;;;;;4933690;28;99333;-78
2023/07/22 04:07:32;;;;;;;19.10;10.90;;;;;;;;;;4930724;28;98491;-79
2023/07/22 04:09:59;;;;;;;19.10;10.57;;;;;;;;;;4930857;28;100163;-80
2023/07/22 04:12:25;;;;;;;17.30;11.70;;;;;;;;;;4929516;28;98380;-77
2023/07/22 04:14:52;;;;;;;15.00;10.77;;;;;;;;;;4930850;28;98917;-78
2023/07/22 04:17:19;;;;;;;19.73;11.70;;;;;;;;;;4930519;28;100375;-77
2023/07/22 04:19:46;;;;;;;17.88;10.90;;;;;;;;;;4928214;28;98573;-78
2023/07/22 04:22:13;;;;;;;18.15;11.20;;;;;;;;;;4930437;28;99334;-78
2023/07/22 04:24:39;;;;;;;18.80;11.05;;;;;;;;;;4930541;28;98965;-78
2023/07/22 04:27:06;;;;;;;19.77;10.65;;;;;;;;;;4934465;28;98936;-78
2023/07/22 04:29:33;;;;;;;18.92;11.32;;;;;;;;;;4946299;28;99850;-78
2023/07/22 04:32:00;;;;;;;18.50;10.40;;;;;;;;;;4949675;28;98205;-79
2023/07/22 04:34:30;;;;;;;15.13;10.88;;;;;;;;;;4932350;28;98436;-78
2023/07/22 04:36:56;;;;;;;17.65;10.45;;;;;;;;;;4932792;28;100232;-80
2023/07/22 04:39:23;;;;;;;15.52;10.57;;;;;;;;;;4933100;28;98249;-81
2023/07/22 04:41:49;;;;;;;15.93;10.15;;;;;;;;;;4931860;28;98733;-78
2023/07/22 04:44:17;;;;;;;17.63;9.88;;;;;;;;;;4929256;28;99112;-80
2023/07/22 04:46:44;;;;;;;19.08;10.57;;;;;;;;;;4930608;28;98274;-79
2023/07/22 04:49:10;;;;;;;18.33;11.48;;;;;;;;;;4933017;28;99739;-78
2023/07/22 04:51:37;;;;;;;17.27;10.57;;;;;;;;;;4930591;28;98213;-78
2023/07/22 04:54:03;;;;;;;26.75;11.18;;;;;;;;;;4929779;28;99695;-79
2023/07/22 04:56:30;;;;;;;17.58;11.40;;;;;;;;;;4926536;28;98820;-79
2023/07/22 04:58:56;;;;;;;17.42;11.10;;;;;;;;;;4923033;28;98213;-78
2023/07/22 05:01:23;;;;;;;15.27;11.45;;;;;;;;;;4932634;28;99500;-79
2023/07/22 05:03:49;;;;;;;17.92;10.75;;;;;;;;;;4934272;28;99997;-79
2023/07/22 05:06:16;;;;;;;21.60;12.00;;;;;;;;;;4933647;28;99026;-79
2023/07/22 05:08:42;;;;;;;23.65;13.10;;;;;;;;;;4931430;28;99389;-79
2023/07/22 05:11:09;;;;;;;24.67;11.80;;;;;;;;;;4936497;28;98263;-79
2023/07/22 05:13:36;;;;;;;26.20;12.65;;;;;;;;;;4933369;28;99382;-78
2023/07/22 05:16:02;;;;;;;20.52;11.48;;;;;;;;;;4932561;28;99934;-78
2023/07/22 05:18:29;;;;;;;22.63;11.80;;;;;;;;;;4932927;28;98274;-79
2023/07/22 05:20:55;;;;;;;21.90;12.30;;;;;;;;;;4933907;28;98551;-79
2023/07/22 05:23:22;;;;;;;28.25;12.23;;;;;;;;;;4932248;28;100068;-79
2023/07/22 05:25:52;;;;;;;21.05;13.02;;;;;;;;;;4933789;28;98310;-78
2023/07/22 05:28:18;;;;;;;20.10;12.25;;;;;;;;;;4932871;28;98815;-78
2023/07/22 05:30:48;;;;;;;24.85;13.05;;;;;;;;;;4935617;28;100278;-80
2023/07/22 05:33:14;;;;;;;25.58;12.18;;;;;;;;;;4923546;28;98812;-80
2023/07/22 05:35:41;;;;;;;29.52;12.80;;;;;;;;;;4933151;28;99987;-78
2023/07/22 05:38:07;;;;;;;25.23;13.63;;;;;;;;;;4933011;28;98514;-79
2023/07/22 05:40:34;;;;;;;26.13;12.43;;;;;;;;;;4933163;28;98860;-80
2023/07/22 05:43:03;;;;;;;30.88;13.68;;;;;;;;;;4932530;28;99834;-80
2023/07/22 05:45:29;;;;;;;20.42;12.30;;;;;;;;;;4932426;28;98248;-78
2023/07/22 05:47:56;;;;;;;21.17;12.35;;;;;;;;;;4932847;28;99640;-78
2023/07/22 05:50:22;;;;;;;22.33;12.52;;;;;;;;;;4931702;28;100003;-79
2023/07/22 05:52:49;;;;;;;22.90;12.73;;;;;;;;;;4936818;28;98251;-79
2023/07/22 05:55:15;;;;;;;21.90;12.93;;;;;;;;;;4952027;28;100414;-77
2023/07/22 05:57:42;;;;;;;25.65;13.73;;;;;;;;;;4951046;28;98284;-79
2023/07/22 06:00:08;;;;;;;18.65;12.35;;;;;;;;;;4952445;28;99803;-80
2023/07/22 06:02:39;;;;;;;21.85;13.55;;;;;;;;;;4932589;28;98991;-79
2023/07/22 06:05:06;;;;;;;20.05;12.68;;;;;;;;;;4932313;28;98211;-79
2023/07/22 06:07:32;;;;;;;24.20;12.68;;;;;;;;;;4923985;28;99528;-79
2023/07/22 06:09:59;;;;;;;18.20;12.68;;;;;;;;;;4931437;28;100005;-79
2023/07/22 06:12:25;;;;;;;23.13;13.57;;;;;;;;;;4930824;28;98373;-79
2023/07/22 06:14:57;;;;;;;23.23;13.50;;;;;;;;;;4936107;28;98520;-80
2023/07/22 06:17:24;;;;;;;24.92;12.70;;;;;;;;;;4931831;28;98217;-79
2023/07/22 06:19:50;;;;;;;24.00;13.68;;;;;;;;;;4929786;28;99550;-79
2023/07/22 06:22:17;;;;;;;22.55;12.73;;;;;;;;;;4927700;28;99107;-79
2023/07/22 06:24:43;;;;;;;18.30;12.68;;;;;;;;;;4932414;28;98317;-79
2023/07/22 06:27:10;;;;;;;20.13;13.32;;;;;;;;;;4925925;28;99439;-79
2023/07/22 06:29:36;;;;;;;23.55;13.02;;;;;;;;;;4913114;28;100383;-79
2023/07/22 06:32:03;;;;;;;25.80;13.18;;;;;;;;;;4917717;28;98301;-79
2023/07/22 06:34:29;;;;;;;19.70;13.02;;;;;;;;;;4930350;28;98619;-79
2023/07/22 06:36:56;;;;;;;23.77;12.98;;;;;;;;;;4933656;28;98996;-80
2023/07/22 06:39:22;;;;;;;20.10;12.23;;;;;;;;;;4931964;28;99545;-79
2023/07/22 06:41:49;;;;;;;21.83;11.82;;;;;;;;;;4931353;28;99938;-79
2023/07/22 06:44:15;;;;;;;20.83;12.73;;;;;;;;;;4930140;28;99206;-80
2023/07/22 06:46:42;;;;;;;19.30;12.25;;;;;;;;;;4930910;28;99406;-82
2023/07/22 06:49:08;;;;;;;16.67;11.88;;;;;;;;;;4925201;28;99495;-78
2023/07/22 06:51:35;;;;;;;17.30;12.50;;;;;;;;;;4930508;28;98215;-78
2023/07/22 06:54:02;;;;;;;18.85;11.30;;;;;;;;;;4923275;28;99745;-78
2023/07/22 06:56:28;;;;;;;18.65;11.35;;;;;;;;;;4929519;28;99009;-79
2023/07/22 06:58:56;;;;;;;17.08;11.93;;;;;;;;;;4929948;28;98324;-81
2023/07/22 07:01:23;;;;;;;15.38;11.73;;;;;;;;;;4928681;28;99897;-76
2023/07/22 07:03:50;;;;;;;16.05;11.18;;;;;;;;;;4931124;28;99244;-77
2023/07/22 07:06:16;;;;;;;18.00;11.55;;;;;;;;;;4929832;28;99948;-76
2023/07/22 07:08:43;;;;;;;16.67;11.18;;;;;;;;;;4927432;28;99059;-78
2023/07/22 07:11:09;;;;;;;15.00;10.77;;;;;;;;;;4926939;28;98251;-77
2023/07/22 07:13:36;;;;;;;12.25;9.73;;;;;;;;;;4929217;28;98320;-79
2023/07/22 07:16:21;;;;;;;23.83;10.95;;;;;;;;;;4930538;28;99105;-79
2023/07/22 07:18:48;;;;;;;21.80;11.65;;;;;;;;;;4931661;28;98228;-81
2023/07/22 07:21:14;;;;;;;15.82;10.88;;;;;;;;;;4930031;28;98894;-82
2023/07/22 07:23:41;;;;;;;18.95;10.73;;;;;;;;;;4928611;28;98350;-80
2023/07/22 07:26:07;;;;;;;15.85;10.38;;;;;;;;;;4926683;28;98676;-79
2023/07/22 07:28:34;;;;;;;19.40;10.43;;;;;;;;;;4930603;28;100225;-80
2023/07/22 07:31:00;;;;;;;16.35;11.25;;;;;;;;;;4931317;28;98359;-81
2023/07/22 07:33:27;;;;;;;21.80;10.82;;;;;;;;;;4931308;28;99127;-79
2023/07/22 07:35:54;;;;;;;18.95;11.18;;;;;;;;;;4919253;28;100167;-78
2023/07/22 07:38:20;;;;;;;19.58;10.40;;;;;;;;;;4911553;28;98262;-78
2023/07/22 07:40:51;;;;;;;12.77;10.30;;;;;;;;;;4922449;28;99374;-78
2023/07/22 07:43:17;;;;;;;16.52;10.95;;;;;;;;;;4929756;28;98207;-77
2023/07/22 07:45:43;;;;;;;22.40;11.18;;;;;;;;;;4931008;28;99617;-78
2023/07/22 07:48:10;;;;;;;14.23;10.30;;;;;;;;;;4931376;28;98947;-78
2023/07/22 07:50:37;;;;;;;15.60;10.40;;;;;;;;;;4930383;28;98332;-78
2023/07/22 07:53:04;;;;;;;17.92;10.65;;;;;;;;;;4931737;28;98466;-78
2023/07/22 07:55:31;;;;;;;21.35;9.70;;;;;;;;;;4928862;28;99880;-76
2023/07/22 07:57:57;;;;;;;12.73;9.63;;;;;;;;;;4918746;28;100040;-76
2023/07/22 08:00:24;;;;;;;12.52;9.68;;;;;;;;;;4910559;28;98631;-80
2023/07/22 08:02:50;;;;;;;23.05;9.65;;;;;;;;;;4914582;28;99924;-75
2023/07/22 08:05:17;;;;;;;14.55;8.95;;;;;;;;;;4910048;28;98627;-76
2023/07/22 08:07:43;;;;;;;15.10;9.20;;;;;;;;;;4911001;28;100125;-76
2023/07/22 08:10:10;;;;;;;11.90;8.05;;;;;;;;;;4914900;28;98244;-76
2023/07/22 08:12:37;;;;;;;15.63;9.73;;;;;;;;;;4920290;28;99790;-77
2023/07/22 08:15:04;;;;;;;17.45;8.18;;;;;;;;;;4930417;28;99909;-77
2023/07/22 08:17:30;;;;;;;19.23;8.25;;;;;;;;;;4914195;28;98338;-75
2023/07/22 08:19:56;;;;;;;12.05;8.23;;;;;;;;;;4930622;28;100025;-77
2023/07/22 08:22:23;;;;;;;12.10;8.45;;;;;;;;;;4930453;28;99415;-76
2023/07/22 08:24:49;;;;;;;12.00;9.05;;;;;;;;;;4930665;28;98939;-77
2023/07/22 08:27:16;;;;;;;10.48;8.40;;;;;;;;;;4928578;28;100404;-77
2023/07/22 08:29:42;;;;;;;12.50;8.88;;;;;;;;;;4919696;28;99950;-77
2023/07/22 08:32:09;;;;;;;15.52;8.13;;;;;;;;;;4930070;28;98574;-77
2023/07/22 08:34:35;;;;;;;13.07;7.85;;;;;;;;;;4929753;28;100170;-76
2023/07/22 08:37:02;;;;;;;10.85;7.53;;;;;;;;;;4925771;28;98266;-77
2023/07/22 08:39:28;;;;;;;15.20;7.40;;;;;;;;;;4929753;28;99501;-78
2023/07/22 08:41:56;;;;;;;12.20;7.78;;;;;;;;;;4921237;28;99957;-77
2023/07/22 08:44:25;;;;;;;10.50;6.75;;;;;;;;;;4931844;28;99597;-77
2023/07/22 08:46:54;;;;;;;10.50;6.32;;;;;;;;;;4923217;28;99331;-78
2023/07/22 08:49:21;;;;;;;13.02;6.68;;;;;;;;;;4927875;28;98674;-78
2023/07/22 08:51:47;;;;;;;9.32;7.00;;;;;;;;;;4929830;28;98831;-76
2023/07/22 08:54:14;;;;;;;10.13;6.88;;;;;;;;;;4927457;28;99547;-76
2023/07/22 08:56:41;;;;;;;12.02;6.93;;;;;;;;;;4930191;28;98236;-75
2023/07/22 08:59:08;;;;;;;8.52;6.38;;;;;;;;;;4924320;28;100346;-77
2023/07/22 09:01:35;;;;;;;10.52;6.35;;;;;;;;;;4929415;28;99007;-76
2023/07/22 09:04:03;;;;;;;7.70;6.20;;;;;;;;;;4930033;28;98228;-76
2023/07/22 09:06:30;;;;;;;8.20;6.00;;;;;;;;;;4930339;28;99801;-82
2023/07/22 09:08:56;;;;;;;9.23;5.95;;;;;;;;;;4933018;28;99982;-76
2023/07/22 09:11:23;;;;;;;16.25;5.47;;;;;;;;;;4930087;28;98630;-77
2023/07/22 09:13:51;;;;;;;9.55;5.88;;;;;;;;;;4922843;28;99544;-76
2023/07/22 09:16:18;;;;;;;6.40;5.47;;;;;;;;;;4922961;28;98194;-76
2023/07/22 09:18:44;;;;;;;11.15;5.45;;;;;;;;;;4918621;28;99434;-77
2023/07/22 09:21:11;;;;;;;6.70;4.63;;;;;;;;;;4926770;28;100161;-76
2023/07/22 09:23:38;;;;;;;8.30;4.70;;;;;;;;;;4930133;28;98248;-77
2023/07/22 09:26:08;;;;;;;7.75;4.13;;;;;;;;;;4929761;28;99724;-76
2023/07/22 09:28:53;;;;;;;6.07;3.90;;;;;;;;;;4930912;28;98990;-78
2023/07/22 09:31:23;;;;;;;5.28;4.28;;;;;;;;;;4926131;28;99915;-78
2023/07/22 09:33:50;;;;;;;12.05;4.40;;;;;;;;;;4910568;28;100097;-78
2023/07/22 09:36:17;;;;;;;5.95;4.20;;;;;;;;;;4920196;28;98394;-79
2023/07/22 09:38:43;;;;;;;4.82;4.32;;;;;;;;;;4929170;28;98787;-76
2023/07/22 09:41:09;;;;;;;6.28;4.25;;;;;;;;;;4929530;28;99939;-76
2023/07/22 09:43:38;;;;;;;8.43;4.07;;;;;;;;;;4931092;28;98218;-79
2023/07/22 09:46:08;;;;;;;10.20;4.75;;;;;;;;;;4935439;28;99265;-81
2023/07/22 09:48:55;;;;;;;14.35;4.30;;;;;;;;;;4932942;28;99111;-77
2023/07/22 09:51:21;;;;;;;7.70;3.90;;;;;;;;;;4933929;28;99380;-77
2023/07/22 09:53:59;;;;;;;5.72;3.75;;;;;;;;;;4933050;28;99190;-79
2023/07/22 09:56:25;;;;;;;8.77;3.80;;;;;;;;;;4932324;28;98192;-79
2023/07/22 09:58:52;;;;;;;8.48;4.47;;;;;;;;;;4930900;28;99480;-79
2023/07/22 10:01:19;;;;;;;8.82;4.38;;;;;;;;;;4932570;28;99931;-79
2023/07/22 10:03:49;;;;;;;5.00;3.50;;;;;;;;;;4931241;28;98198;-78
2023/07/22 10:06:15;;;;;;;6.70;4.10;;;;;;;;;;4932582;28;98822;-79
2023/07/22 10:08:44;;;;;;;7.93;3.90;;;;;;;;;;4920519;28;98959;-78
2023/07/22 10:11:11;;;;;;;4.97;4.05;;;;;;;;;;4926653;28;98424;-78
2023/07/22 10:13:38;;;;;;;9.48;4.25;;;;;;;;;;4941628;28;99045;-79
2023/07/22 10:16:05;;;;;;;5.13;3.65;;;;;;;;;;4914583;28;99393;-80
2023/07/22 10:18:31;;;;;;;11.00;4.88;;;;;;;;;;4914673;28;99623;-81
2023/07/22 10:20:59;;;;;;;4.85;3.80;;;;;;;;;;4913546;28;100452;-78
2023/07/22 10:23:26;;;;;;;10.73;4.47;;;;;;;;;;4913144;28;98544;-77
2023/07/22 10:25:54;;;;;;;5.05;3.35;;;;;;;;;;4914957;28;99460;-80
2023/07/22 10:28:21;;;;;;;3.75;3.13;;;;;;;;;;4931437;28;99176;-77
2023/07/22 10:30:48;;;;;;;5.38;3.85;;;;;;;;;;4932373;28;98216;-80
2023/07/22 10:33:15;;;;;;;5.15;3.75;;;;;;;;;;4931428;28;99484;-80
2023/07/22 10:35:44;;;;;;;13.77;3.85;;;;;;;;;;4932687;28;98960;-80
2023/07/22 10:38:11;;;;;;;8.27;3.50;;;;;;;;;;4927817;28;98754;-80
2023/07/22 10:40:50;;;;;;;4.20;3.33;;;;;;;;;;4928373;28;99916;-81
2023/07/22 10:43:18;;;;;;;7.07;3.55;;;;;;;;;;4921311;28;98293;-81
2023/07/22 10:45:52;;;;;;;6.95;3.10;;;;;;;;;;4932676;28;98571;-80
2023/07/22 10:48:19;;;;;;;6.85;3.00;;;;;;;;;;4931935;28;98861;-80
2023/07/22 10:50:48;;;;;;;5.50;3.75;;;;;;;;;;4932340;28;98262;-81
2023/07/22 10:53:24;;;;;;;9.30;3.20;;;;;;;;;;4923908;28;99490;-80
2023/07/22 10:56:04;;;;;;;4.70;3.03;;;;;;;;;;4927008;28;99204;-80
2023/07/22 10:58:33;;;;;;;2.42;2.25;;;;;;;;;;4935243;28;98949;-80
2023/07/22 11:01:23;;;;;;;4.40;3.20;;;;;;;;;;4923300;28;99409;-81
2023/07/22 11:04:02;;;;;;;2.97;2.78;;;;;;;;;;4934312;28;98131;-79
2023/07/22 11:06:29;;;;;;;4.78;2.97;;;;;;;;;;4930165;28;99428;-80
2023/07/22 11:08:56;;;;;;;3.80;3.40;;;;;;;;;;4925032;28;99100;-81
2023/07/22 11:11:40;;;;;;;3.67;3.38;;;;;;;;;;4932727;28;97882;-80
2023/07/22 11:14:13;;;;;;;4.65;3.50;;;;;;;;;;4931498;28;98558;-81
2023/07/22 11:16:39;;;;;;;12.80;3.55;;;;;;;;;;4931684;28;98872;-81
2023/07/22 11:19:07;;;;;;;4.78;2.95;;;;;;;;;;4926824;28;98336;-81
2023/07/22 11:21:33;;;;;;;5.68;3.08;;;;;;;;;;4934097;28;99484;-81
2023/07/22 11:24:02;;;;;;;3.72;3.10;;;;;;;;;;4927154;28;98264;-81
2023/07/22 11:26:29;;;;;;;3.78;3.05;;;;;;;;;;4923873;28;98709;-81
2023/07/22 11:28:56;;;;;;;4.78;2.80;;;;;;;;;;4927183;28;98978;-79
2023/07/22 11:31:29;;;;;;;4.72;2.92;;;;;;;;;;4931457;28;98088;-81
2023/07/22 11:33:57;;;;;;;5.55;3.80;;;;;;;;;;4931743;28;99512;-81
2023/07/22 11:36:23;;;;;;;5.07;3.08;;;;;;;;;;4926199;28;99185;-80
2023/07/22 11:38:50;;;;;;;6.05;2.58;;;;;;;;;;4929759;28;98239;-81
2023/07/22 11:41:17;;;;;;;2.50;2.30;;;;;;;;;;4930744;28;98389;-80
2023/07/22 11:43:44;;;;;;;6.60;2.55;;;;;;;;;;4917084;28;98258;-80
2023/07/22 11:46:10;;;;;;;6.55;2.65;;;;;;;;;;4924844;28;99468;-81
2023/07/22 11:48:37;;;;;;;2.47;2.28;;;;;;;;;;4931980;28;99870;-82
2023/07/22 11:51:03;;;;;;;3.22;2.80;;;;;;;;;;4923599;28;99211;-80
2023/07/22 11:53:30;;;;;;;7.97;2.65;;;;;;;;;;4930136;28;99436;-81
2023/07/22 11:55:56;;;;;;;6.60;2.58;;;;;;;;;;4923652;28;101267;-81
2023/07/22 11:58:26;;;;;;;3.22;2.63;;;;;;;;;;4930106;28;98240;-81
2023/07/22 12:01:06;;;;;;;3.05;2.63;;;;;;;;;;4926369;28;98694;-81
2023/07/22 12:03:33;;;;;;;4.43;2.30;;;;;;;;;;4922060;28;100043;-80
2023/07/22 12:06:01;;;;;;;4.55;2.47;;;;;;;;;;4911262;28;99405;-81
2023/07/22 12:08:27;;;;;;;6.00;2.67;;;;;;;;;;4910476;28;99154;-80
2023/07/22 12:11:00;;;;;;;6.60;3.53;;;;;;;;;;4911394;28;98157;-81
2023/07/22 12:13:26;;;;;;;5.75;3.55;;;;;;;;;;4925656;28;99385;-80
2023/07/22 12:16:00;;;;;;;6.80;3.35;;;;;;;;;;4913711;28;101708;-80
2023/07/22 12:18:26;;;;;;;5.60;3.22;;;;;;;;;;4928603;28;98303;-81
2023/07/22 12:20:53;;;;;;;5.88;3.55;;;;;;;;;;4927853;28;99481;-81
2023/07/22 12:23:22;;;;;;;8.30;4.20;;;;;;;;;;4928515;28;99043;-81
2023/07/22 12:25:49;;;;;;;3.65;3.22;;;;;;;;;;4925304;28;98487;-81
2023/07/22 12:28:15;;;;;;;7.57;3.42;;;;;;;;;;4921680;28;100005;-79
2023/07/22 12:30:42;;;;;;;6.47;3.67;;;;;;;;;;4929735;28;98349;-79
2023/07/22 12:33:08;;;;;;;6.25;3.53;;;;;;;;;;4925914;28;98690;-78
2023/07/22 12:35:35;;;;;;;7.13;3.42;;;;;;;;;;4928170;28;99546;-78
2023/07/22 12:38:01;;;;;;;3.88;3.17;;;;;;;;;;4925422;28;99030;-79
2023/07/22 12:40:27;;;;;;;6.72;3.50;;;;;;;;;;4910175;28;99078;-78
2023/07/22 12:42:54;;;;;;;7.55;3.10;;;;;;;;;;4911168;28;99015;-77
2023/07/22 12:45:20;;;;;;;3.88;3.42;;;;;;;;;;4910807;28;98314;-79
2023/07/22 12:47:48;;;;;;;4.13;3.15;;;;;;;;;;4916583;28;98704;-78
2023/07/22 12:50:15;;;;;;;3.97;3.33;;;;;;;;;;4925422;28;98279;-79
2023/07/22 12:52:41;;;;;;;5.20;3.80;;;;;;;;;;4911583;28;98418;-78
2023/07/22 12:55:08;;;;;;;11.07;4.10;;;;;;;;;;4911193;28;98898;-79
2023/07/22 12:57:34;;;;;;;4.88;4.00;;;;;;;;;;4910986;28;98336;-77
2023/07/22 13:00:04;;;;;;;4.40;3.90;;;;;;;;;;4910889;28;98487;-78
2023/07/22 13:02:30;;;;;;;11.77;4.38;;;;;;;;;;4912383;28;98976;-78
2023/07/22 13:04:57;;;;;;;9.40;4.22;;;;;;;;;;4911107;28;98291;-78
2023/07/22 13:07:23;;;;;;;7.38;4.57;;;;;;;;;;4909355;28;100032;-77
2023/07/22 13:09:53;;;;;;;6.97;4.65;;;;;;;;;;4914024;28;99967;-76
2023/07/22 13:12:19;;;;;;;9.38;4.43;;;;;;;;;;4910181;28;99343;-76
2023/07/22 13:14:46;;;;;;;7.97;4.10;;;;;;;;;;4910199;28;99771;-78
2023/07/22 13:17:12;;;;;;;5.03;4.55;;;;;;;;;;4910601;28;98250;-79
2023/07/22 13:19:39;;;;;;;10.68;4.53;;;;;;;;;;4929750;28;99409;-77
2023/07/22 13:22:05;;;;;;;7.25;4.25;;;;;;;;;;4932262;28;99350;-77
2023/07/22 13:24:31;;;;;;;5.53;4.78;;;;;;;;;;4933469;28;98240;-78
2023/07/22 13:27:00;;;;;;;10.05;4.88;;;;;;;;;;4932933;28;99584;-78
2023/07/22 13:29:27;;;;;;;13.93;5.13;;;;;;;;;;4932167;28;98990;-78
2023/07/22 13:31:54;;;;;;;10.18;5.00;;;;;;;;;;4938892;28;98214;-77
2023/07/22 13:34:20;;;;;;;4.95;4.28;;;;;;;;;;4932678;28;99059;-78
2023/07/22 13:36:46;;;;;;;5.63;4.57;;;;;;;;;;4933274;28;98228;-76
2023/07/22 13:39:13;;;;;;;7.63;4.35;;;;;;;;;;4932886;28;99452;-80
2023/07/22 13:41:39;;;;;;;12.00;4.65;;;;;;;;;;4932170;28;99950;-77
2023/07/22 13:44:06;;;;;;;5.70;4.55;;;;;;;;;;4933116;28;98283;-77
2023/07/22 13:46:32;;;;;;;6.93;4.22;;;;;;;;;;4931895;28;99573;-77
2023/07/22 13:48:59;;;;;;;7.82;4.13;;;;;;;;;;4932538;28;98956;-78
2023/07/22 13:51:25;;;;;;;3.97;3.60;;;;;;;;;;4936160;28;98364;-77
2023/07/22 13:53:54;;;;;;;6.10;2.88;;;;;;;;;;4932787;28;100100;-77
2023/07/22 13:56:21;;;;;;;5.60;3.05;;;;;;;;;;4931800;28;98297;-79
2023/07/22 13:58:47;;;;;;;5.15;3.10;;;;;;;;;;4932829;28;98848;-78
2023/07/22 14:01:13;;;;;;;3.67;2.90;;;;;;;;;;4932224;28;100198;-78
2023/07/22 14:03:40;;;;;;;4.85;2.97;;;;;;;;;;4932330;28;98238;-78
2023/07/22 14:06:08;;;;;;;8.43;2.90;;;;;;;;;;4932763;28;99399;-78
2023/07/22 14:08:34;;;;;;;4.88;2.90;;;;;;;;;;4931781;28;99396;-77
2023/07/22 14:11:00;;;;;;;4.63;2.42;;;;;;;;;;4931269;28;98099;-77
2023/07/22 14:13:27;;;;;;;6.75;2.30;;;;;;;;;;4935249;28;98670;-76
2023/07/22 14:15:53;;;;;;;5.70;2.63;;;;;;;;;;4932625;28;98156;-76
2023/07/22 14:18:24;;;;;;;3.63;2.05;;;;;;;;;;4931789;28;99632;-77
2023/07/22 14:20:51;;;;;;;7.40;2.40;;;;;;;;;;4932646;28;98895;-77
2023/07/22 14:23:17;;;;;;;4.60;2.30;;;;;;;;;;4932592;28;98265;-78
2023/07/22 14:25:43;;;;;;;7.05;2.25;;;;;;;;;;4931318;28;99432;-79
2023/07/22 14:28:10;;;;;;;7.22;2.88;;;;;;;;;;4922487;28;98904;-78